sensor_id;sensor_type;location;lat;lon;timestamp;temperature;humidity
8633;DHT22;4354;49.832;10.746;2023-05-19T00:02:06;9.50;1.00
8633;DHT22;4354;49.832;10.746;2023-05-19T00:04:35;9.40;1.00
8633;DHT22;4354;49.832;10.746;2023-05-19T00:07:03;9.40;1.00
8633;DHT22;4354;49.832;10.746;2023-05-19T00:09:31;9.30;1.00
8633;DHT22;4354;49.832;10.746;2023-05-19T00:11:58;9.00;99.90
8633;DHT22;4354;49.832;10.746;2023-05-19T00:14:25;9.20;99.90
8633;DHT22;4354;49.832;10.746;2023-05-19T00:16:52;9.10;1.00
8633;DHT22;4354;49.832;10.746;2023-05-19T00:19:21;9.00;2.90
8633;DHT22;4354;49.832;10.746;2023-05-19T00:21:50;9.00;99.90
8633;DHT22;4354;49.832;10.746;2023-05-19T00:24:17;8.80;1.00
8633;DHT22;4354;49.832;10.746;2023-05-19T00:26:44;8.70;1.00
8633;DHT22;4354;49.832;10.746;2023-05-19T00:29:10;8.50;1.00
8633;DHT22;4354;49.832;10.746;2023-05-19T00:31:37;8.60;1.00
8633;DHT22;4354;49.832;10.746;2023-05-19T00:34:04;8.60;1.00
8633;DHT22;4354;49.832;10.746;2023-05-19T00:36:31;8.50;99.90
8633;DHT22;4354;49.832;10.746;2023-05-19T00:38:58;8.70;1.00
8633;DHT22;4354;49.832;10.746;2023-05-19T00:41:24;8.70;99.90
8633;DHT22;4354;49.832;10.746;2023-05-19T00:43:52;8.60;66.40
8633;DHT22;4354;49.832;10.746;2023-05-19T00:46:19;8.60;99.90
8633;DHT22;4354;49.832;10.746;2023-05-19T00:48:46;8.60;99.90
8633;DHT22;4354;49.832;10.746;2023-05-19T00:51:13;8.60;1.00
8633;DHT22;4354;49.832;10.746;2023-05-19T00:53:43;8.50;99.90
8633;DHT22;4354;49.832;10.746;2023-05-19T00:56:15;8.50;1.00
8633;DHT22;4354;49.832;10.746;2023-05-19T00:58:43;8.60;1.00
8633;DHT22;4354;49.832;10.746;2023-05-19T01:01:10;8.40;1.00
8633;DHT22;4354;49.832;10.746;2023-05-19T01:03:41;8.40;1.00
8633;DHT22;4354;49.832;10.746;2023-05-19T01:06:09;8.40;1.00
8633;DHT22;4354;49.832;10.746;2023-05-19T01:08:37;8.40;13.70
8633;DHT22;4354;49.832;10.746;2023-05-19T01:11:05;8.20;1.00
8633;DHT22;4354;49.832;10.746;2023-05-19T01:13:33;8.30;1.00
8633;DHT22;4354;49.832;10.746;2023-05-19T01:16:11;8.20;99.90
8633;DHT22;4354;49.832;10.746;2023-05-19T01:18:55;8.30;1.00
8633;DHT22;4354;49.832;10.746;2023-05-19T01:32:22;8.30;1.00
8633;DHT22;4354;49.832;10.746;2023-05-19T01:34:50;8.30;99.90
8633;DHT22;4354;49.832;10.746;2023-05-19T01:37:19;8.10;1.00
8633;DHT22;4354;49.832;10.746;2023-05-19T01:39:47;8.20;1.00
8633;DHT22;4354;49.832;10.746;2023-05-19T01:42:16;8.20;1.00
8633;DHT22;4354;49.832;10.746;2023-05-19T01:44:43;8.40;99.90
8633;DHT22;4354;49.832;10.746;2023-05-19T01:47:11;8.30;1.00
8633;DHT22;4354;49.832;10.746;2023-05-19T01:49:38;8.30;99.90
8633;DHT22;4354;49.832;10.746;2023-05-19T01:52:05;8.30;1.00
8633;DHT22;4354;49.832;10.746;2023-05-19T01:54:32;8.30;99.90
8633;DHT22;4354;49.832;10.746;2023-05-19T01:57:23;8.40;1.00
8633;DHT22;4354;49.832;10.746;2023-05-19T02:00:28;8.30;99.90
8633;DHT22;4354;49.832;10.746;2023-05-19T02:05:43;8.20;1.00
8633;DHT22;4354;49.832;10.746;2023-05-19T02:08:41;8.20;99.90
8633;DHT22;4354;49.832;10.746;2023-05-19T02:11:20;8.10;7.50
8633;DHT22;4354;49.832;10.746;2023-05-19T02:16:18;8.30;49.20
8633;DHT22;4354;49.832;10.746;2023-05-19T02:18:47;8.20;1.00
8633;DHT22;4354;49.832;10.746;2023-05-19T02:21:13;8.10;99.90
8633;DHT22;4354;49.832;10.746;2023-05-19T02:23:40;8.20;99.90
8633;DHT22;4354;49.832;10.746;2023-05-19T02:26:07;8.00;99.90
8633;DHT22;4354;49.832;10.746;2023-05-19T02:28:34;8.30;94.50
8633;DHT22;4354;49.832;10.746;2023-05-19T02:31:02;8.20;1.00
8633;DHT22;4354;49.832;10.746;2023-05-19T02:33:31;8.20;99.90
8633;DHT22;4354;49.832;10.746;2023-05-19T02:35:58;8.40;99.90
8633;DHT22;4354;49.832;10.746;2023-05-19T02:38:25;8.40;99.90
8633;DHT22;4354;49.832;10.746;2023-05-19T02:40:52;8.30;1.00
8633;DHT22;4354;49.832;10.746;2023-05-19T02:43:19;8.40;1.00
8633;DHT22;4354;49.832;10.746;2023-05-19T02:45:46;8.40;1.00
8633;DHT22;4354;49.832;10.746;2023-05-19T02:48:13;8.50;1.00
8633;DHT22;4354;49.832;10.746;2023-05-19T02:50:40;8.50;1.00
8633;DHT22;4354;49.832;10.746;2023-05-19T02:53:07;8.50;46.70
8633;DHT22;4354;49.832;10.746;2023-05-19T02:55:33;8.60;1.00
8633;DHT22;4354;49.832;10.746;2023-05-19T02:58:00;8.80;1.00
8633;DHT22;4354;49.832;10.746;2023-05-19T03:00:28;8.60;1.00
8633;DHT22;4354;49.832;10.746;2023-05-19T03:02:55;8.70;1.00
8633;DHT22;4354;49.832;10.746;2023-05-19T03:05:22;8.60;1.00
8633;DHT22;4354;49.832;10.746;2023-05-19T03:07:49;8.50;1.00
8633;DHT22;4354;49.832;10.746;2023-05-19T03:10:16;8.70;1.00
8633;DHT22;4354;49.832;10.746;2023-05-19T03:12:43;8.50;1.00
8633;DHT22;4354;49.832;10.746;2023-05-19T03:15:10;8.60;99.90
8633;DHT22;4354;49.832;10.746;2023-05-19T03:17:38;8.60;99.90
8633;DHT22;4354;49.832;10.746;2023-05-19T03:20:07;8.60;99.90
8633;DHT22;4354;49.832;10.746;2023-05-19T03:22:34;8.40;99.90
8633;DHT22;4354;49.832;10.746;2023-05-19T03:25:01;8.60;99.90
8633;DHT22;4354;49.832;10.746;2023-05-19T03:27:28;8.40;1.00
8633;DHT22;4354;49.832;10.746;2023-05-19T03:29:55;8.50;1.00
8633;DHT22;4354;49.832;10.746;2023-05-19T03:32:21;8.40;1.00
8633;DHT22;4354;49.832;10.746;2023-05-19T03:34:48;8.50;52.60
8633;DHT22;4354;49.832;10.746;2023-05-19T03:37:15;8.40;1.00
8633;DHT22;4354;49.832;10.746;2023-05-19T03:39:42;8.40;1.00
8633;DHT22;4354;49.832;10.746;2023-05-19T03:42:09;8.60;1.00
8633;DHT22;4354;49.832;10.746;2023-05-19T03:44:35;8.60;1.00
8633;DHT22;4354;49.832;10.746;2023-05-19T03:47:02;8.40;1.00
8633;DHT22;4354;49.832;10.746;2023-05-19T03:49:29;8.40;29.70
8633;DHT22;4354;49.832;10.746;2023-05-19T03:51:56;8.40;99.90
8633;DHT22;4354;49.832;10.746;2023-05-19T03:54:23;8.60;1.00
8633;DHT22;4354;49.832;10.746;2023-05-19T03:56:50;8.50;99.90
8633;DHT22;4354;49.832;10.746;2023-05-19T03:59:17;8.40;1.00
8633;DHT22;4354;49.832;10.746;2023-05-19T04:01:44;8.70;1.00
8633;DHT22;4354;49.832;10.746;2023-05-19T04:04:11;8.60;99.90
8633;DHT22;4354;49.832;10.746;2023-05-19T04:06:38;8.70;1.00
8633;DHT22;4354;49.832;10.746;2023-05-19T04:09:11;8.80;99.90
8633;DHT22;4354;49.832;10.746;2023-05-19T04:11:39;8.90;1.00
8633;DHT22;4354;49.832;10.746;2023-05-19T04:14:06;8.90;99.90
8633;DHT22;4354;49.832;10.746;2023-05-19T04:16:33;9.00;99.90
8633;DHT22;4354;49.832;10.746;2023-05-19T04:19:00;9.10;1.00
8633;DHT22;4354;49.832;10.746;2023-05-19T04:21:27;9.20;99.90
8633;DHT22;4354;49.832;10.746;2023-05-19T04:23:54;9.10;1.00
8633;DHT22;4354;49.832;10.746;2023-05-19T04:26:21;9.30;99.90
8633;DHT22;4354;49.832;10.746;2023-05-19T04:28:50;9.30;1.00
8633;DHT22;4354;49.832;10.746;2023-05-19T04:31:16;9.40;1.00
8633;DHT22;4354;49.832;10.746;2023-05-19T04:33:43;9.70;1.00
8633;DHT22;4354;49.832;10.746;2023-05-19T04:36:10;9.80;91.20
8633;DHT22;4354;49.832;10.746;2023-05-19T04:38:39;9.70;1.00
8633;DHT22;4354;49.832;10.746;2023-05-19T04:41:06;9.80;1.00
8633;DHT22;4354;49.832;10.746;2023-05-19T04:43:39;9.90;1.00
8633;DHT22;4354;49.832;10.746;2023-05-19T04:46:07;9.90;1.00
8633;DHT22;4354;49.832;10.746;2023-05-19T04:48:39;10.00;1.00
8633;DHT22;4354;49.832;10.746;2023-05-19T04:51:06;10.00;99.90
8633;DHT22;4354;49.832;10.746;2023-05-19T04:53:33;10.10;1.00
8633;DHT22;4354;49.832;10.746;2023-05-19T04:56:00;10.20;1.00
8633;DHT22;4354;49.832;10.746;2023-05-19T04:58:27;10.40;99.90
8633;DHT22;4354;49.832;10.746;2023-05-19T05:00:54;10.60;99.90
8633;DHT22;4354;49.832;10.746;2023-05-19T05:03:21;10.80;99.90
8633;DHT22;4354;49.832;10.746;2023-05-19T05:05:53;10.80;99.90
8633;DHT22;4354;49.832;10.746;2023-05-19T05:08:20;10.90;99.90
8633;DHT22;4354;49.832;10.746;2023-05-19T05:10:50;10.80;34.50
8633;DHT22;4354;49.832;10.746;2023-05-19T05:13:22;11.10;1.00
8633;DHT22;4354;49.832;10.746;2023-05-19T05:15:49;11.10;1.00
8633;DHT22;4354;49.832;10.746;2023-05-19T05:18:18;11.10;1.00
8633;DHT22;4354;49.832;10.746;2023-05-19T05:20:45;11.20;1.00
8633;DHT22;4354;49.832;10.746;2023-05-19T05:23:12;11.30;1.00
8633;DHT22;4354;49.832;10.746;2023-05-19T05:25:40;11.50;1.00
8633;DHT22;4354;49.832;10.746;2023-05-19T05:28:07;11.70;1.00
8633;DHT22;4354;49.832;10.746;2023-05-19T05:30:35;11.90;1.00
8633;DHT22;4354;49.832;10.746;2023-05-19T05:33:02;11.90;1.00
8633;DHT22;4354;49.832;10.746;2023-05-19T05:35:29;12.00;1.00
8633;DHT22;4354;49.832;10.746;2023-05-19T05:37:56;12.10;1.00
8633;DHT22;4354;49.832;10.746;2023-05-19T05:40:23;12.40;99.90
8633;DHT22;4354;49.832;10.746;2023-05-19T05:42:50;12.30;99.90
8633;DHT22;4354;49.832;10.746;2023-05-19T05:45:17;12.50;99.90
8633;DHT22;4354;49.832;10.746;2023-05-19T05:47:44;12.40;99.90
8633;DHT22;4354;49.832;10.746;2023-05-19T05:50:11;12.50;99.90
8633;DHT22;4354;49.832;10.746;2023-05-19T05:52:40;12.50;99.90
8633;DHT22;4354;49.832;10.746;2023-05-19T05:55:08;12.60;99.90
8633;DHT22;4354;49.832;10.746;2023-05-19T05:57:35;12.70;99.90
8633;DHT22;4354;49.832;10.746;2023-05-19T06:00:03;13.00;99.90
8633;DHT22;4354;49.832;10.746;2023-05-19T06:02:33;12.90;99.20
8633;DHT22;4354;49.832;10.746;2023-05-19T06:05:00;13.10;90.60
8633;DHT22;4354;49.832;10.746;2023-05-19T06:07:28;13.20;88.60
8633;DHT22;4354;49.832;10.746;2023-05-19T06:09:55;13.30;98.90
8633;DHT22;4354;49.832;10.746;2023-05-19T06:12:22;13.40;45.70
8633;DHT22;4354;49.832;10.746;2023-05-19T06:14:49;13.60;1.00
8633;DHT22;4354;49.832;10.746;2023-05-19T06:17:15;13.60;1.00
8633;DHT22;4354;49.832;10.746;2023-05-19T06:19:42;13.80;1.00
8633;DHT22;4354;49.832;10.746;2023-05-19T06:22:09;13.90;1.00
8633;DHT22;4354;49.832;10.746;2023-05-19T06:24:36;14.00;1.00
8633;DHT22;4354;49.832;10.746;2023-05-19T06:27:05;14.00;1.00
8633;DHT22;4354;49.832;10.746;2023-05-19T06:29:31;14.20;1.00
8633;DHT22;4354;49.832;10.746;2023-05-19T06:31:58;14.10;1.00
8633;DHT22;4354;49.832;10.746;2023-05-19T06:34:25;14.20;1.00
8633;DHT22;4354;49.832;10.746;2023-05-19T06:36:52;14.20;1.00
8633;DHT22;4354;49.832;10.746;2023-05-19T06:39:19;14.20;1.00
8633;DHT22;4354;49.832;10.746;2023-05-19T06:41:45;14.20;1.00
8633;DHT22;4354;49.832;10.746;2023-05-19T06:44:12;14.20;1.00
8633;DHT22;4354;49.832;10.746;2023-05-19T06:46:39;14.30;1.00
8633;DHT22;4354;49.832;10.746;2023-05-19T06:49:06;14.50;1.00
8633;DHT22;4354;49.832;10.746;2023-05-19T06:51:33;14.70;1.00
8633;DHT22;4354;49.832;10.746;2023-05-19T06:54:01;14.70;1.00
8633;DHT22;4354;49.832;10.746;2023-05-19T06:56:28;14.80;1.00
8633;DHT22;4354;49.832;10.746;2023-05-19T06:58:55;14.80;1.00
8633;DHT22;4354;49.832;10.746;2023-05-19T07:01:21;15.10;1.00
8633;DHT22;4354;49.832;10.746;2023-05-19T07:03:48;15.40;1.00
8633;DHT22;4354;49.832;10.746;2023-05-19T07:06:15;15.50;1.00
8633;DHT22;4354;49.832;10.746;2023-05-19T07:08:42;15.50;1.00
8633;DHT22;4354;49.832;10.746;2023-05-19T07:11:09;15.60;1.00
8633;DHT22;4354;49.832;10.746;2023-05-19T07:13:37;16.00;1.00
8633;DHT22;4354;49.832;10.746;2023-05-19T07:16:04;16.40;1.00
8633;DHT22;4354;49.832;10.746;2023-05-19T07:18:31;16.90;1.00
8633;DHT22;4354;49.832;10.746;2023-05-19T07:20:58;17.50;1.00
8633;DHT22;4354;49.832;10.746;2023-05-19T07:23:25;17.90;99.90
8633;DHT22;4354;49.832;10.746;2023-05-19T07:25:55;17.80;99.90
8633;DHT22;4354;49.832;10.746;2023-05-19T07:28:22;17.80;99.90
8633;DHT22;4354;49.832;10.746;2023-05-19T07:30:49;17.80;99.90
8633;DHT22;4354;49.832;10.746;2023-05-19T07:33:16;17.80;99.90
8633;DHT22;4354;49.832;10.746;2023-05-19T07:35:43;18.00;99.90
8633;DHT22;4354;49.832;10.746;2023-05-19T07:38:11;18.10;99.90
8633;DHT22;4354;49.832;10.746;2023-05-19T07:40:37;18.00;99.90
8633;DHT22;4354;49.832;10.746;2023-05-19T07:43:04;18.00;99.90
8633;DHT22;4354;49.832;10.746;2023-05-19T07:45:31;18.00;99.90
8633;DHT22;4354;49.832;10.746;2023-05-19T07:47:58;17.90;99.90
8633;DHT22;4354;49.832;10.746;2023-05-19T07:50:25;17.90;99.90
8633;DHT22;4354;49.832;10.746;2023-05-19T07:52:52;17.90;99.90
8633;DHT22;4354;49.832;10.746;2023-05-19T07:55:19;17.70;99.90
8633;DHT22;4354;49.832;10.746;2023-05-19T07:57:49;17.70;99.90
8633;DHT22;4354;49.832;10.746;2023-05-19T08:00:16;17.60;99.90
8633;DHT22;4354;49.832;10.746;2023-05-19T08:02:43;17.60;99.90
8633;DHT22;4354;49.832;10.746;2023-05-19T08:05:10;17.40;99.90
8633;DHT22;4354;49.832;10.746;2023-05-19T08:07:37;17.30;99.90
8633;DHT22;4354;49.832;10.746;2023-05-19T08:10:04;17.30;99.90
8633;DHT22;4354;49.832;10.746;2023-05-19T08:12:31;17.60;99.90
8633;DHT22;4354;49.832;10.746;2023-05-19T08:14:58;17.90;99.90
8633;DHT22;4354;49.832;10.746;2023-05-19T08:17:27;18.60;99.90
8633;DHT22;4354;49.832;10.746;2023-05-19T08:19:54;19.80;99.90
8633;DHT22;4354;49.832;10.746;2023-05-19T08:22:20;20.30;1.00
8633;DHT22;4354;49.832;10.746;2023-05-19T08:27:17;23.80;1.00
8633;DHT22;4354;49.832;10.746;2023-05-19T08:29:44;26.00;17.20
8633;DHT22;4354;49.832;10.746;2023-05-19T08:32:11;28.30;1.00
8633;DHT22;4354;49.832;10.746;2023-05-19T08:34:39;29.80;1.00
8633;DHT22;4354;49.832;10.746;2023-05-19T08:37:06;29.70;1.00
8633;DHT22;4354;49.832;10.746;2023-05-19T08:39:33;28.60;1.00
8633;DHT22;4354;49.832;10.746;2023-05-19T08:42:00;28.00;1.00
8633;DHT22;4354;49.832;10.746;2023-05-19T08:44:28;28.50;1.00
8633;DHT22;4354;49.832;10.746;2023-05-19T08:46:59;29.30;1.00
8633;DHT22;4354;49.832;10.746;2023-05-19T08:49:31;30.80;1.00
8633;DHT22;4354;49.832;10.746;2023-05-19T08:52:16;31.40;1.00
8633;DHT22;4354;49.832;10.746;2023-05-19T08:55:02;32.10;1.00
8633;DHT22;4354;49.832;10.746;2023-05-19T08:57:30;33.20;1.00
8633;DHT22;4354;49.832;10.746;2023-05-19T08:59:58;33.20;1.00
8633;DHT22;4354;49.832;10.746;2023-05-19T09:02:26;32.90;1.00
8633;DHT22;4354;49.832;10.746;2023-05-19T09:04:56;32.70;1.00
8633;DHT22;4354;49.832;10.746;2023-05-19T09:07:24;31.60;1.00
8633;DHT22;4354;49.832;10.746;2023-05-19T09:09:52;30.40;1.00
8633;DHT22;4354;49.832;10.746;2023-05-19T09:12:19;27.70;1.00
8633;DHT22;4354;49.832;10.746;2023-05-19T09:14:46;26.10;1.00
8633;DHT22;4354;49.832;10.746;2023-05-19T09:17:13;25.60;1.00
8633;DHT22;4354;49.832;10.746;2023-05-19T09:19:44;24.40;1.00
8633;DHT22;4354;49.832;10.746;2023-05-19T09:22:15;23.40;1.00
8633;DHT22;4354;49.832;10.746;2023-05-19T09:24:46;22.80;1.00
8633;DHT22;4354;49.832;10.746;2023-05-19T09:27:20;22.30;1.00
8633;DHT22;4354;49.832;10.746;2023-05-19T09:29:50;21.80;1.00
8633;DHT22;4354;49.832;10.746;2023-05-19T09:32:24;21.30;1.00
8633;DHT22;4354;49.832;10.746;2023-05-19T09:34:53;21.10;1.00
8633;DHT22;4354;49.832;10.746;2023-05-19T09:37:23;20.60;1.00
8633;DHT22;4354;49.832;10.746;2023-05-19T09:39:54;20.50;1.00
8633;DHT22;4354;49.832;10.746;2023-05-19T09:42:25;20.20;1.00
8633;DHT22;4354;49.832;10.746;2023-05-19T09:44:59;19.90;1.00
8633;DHT22;4354;49.832;10.746;2023-05-19T09:47:31;19.80;1.00
8633;DHT22;4354;49.832;10.746;2023-05-19T09:49:58;19.80;1.00
8633;DHT22;4354;49.832;10.746;2023-05-19T09:52:25;19.70;1.00
8633;DHT22;4354;49.832;10.746;2023-05-19T09:54:53;19.60;1.00
8633;DHT22;4354;49.832;10.746;2023-05-19T09:57:25;19.50;1.00
8633;DHT22;4354;49.832;10.746;2023-05-19T09:59:54;19.70;1.00
8633;DHT22;4354;49.832;10.746;2023-05-19T10:02:23;20.00;1.00
8633;DHT22;4354;49.832;10.746;2023-05-19T10:04:52;20.20;1.00
8633;DHT22;4354;49.832;10.746;2023-05-19T10:07:22;20.60;1.00
8633;DHT22;4354;49.832;10.746;2023-05-19T10:09:50;20.80;1.00
8633;DHT22;4354;49.832;10.746;2023-05-19T10:12:19;21.10;1.00
8633;DHT22;4354;49.832;10.746;2023-05-19T10:14:46;21.40;1.00
8633;DHT22;4354;49.832;10.746;2023-05-19T10:17:14;21.60;1.00
8633;DHT22;4354;49.832;10.746;2023-05-19T10:19:42;22.00;1.00
8633;DHT22;4354;49.832;10.746;2023-05-19T10:22:10;22.60;1.00
8633;DHT22;4354;49.832;10.746;2023-05-19T10:24:37;23.30;1.00
8633;DHT22;4354;49.832;10.746;2023-05-19T10:27:10;23.80;1.00
8633;DHT22;4354;49.832;10.746;2023-05-19T10:29:41;24.80;1.00
8633;DHT22;4354;49.832;10.746;2023-05-19T10:32:12;24.70;1.00
8633;DHT22;4354;49.832;10.746;2023-05-19T10:37:52;23.90;1.00
8633;DHT22;4354;49.832;10.746;2023-05-19T10:40:27;23.30;1.00
8633;DHT22;4354;49.832;10.746;2023-05-19T10:45:57;23.20;1.00
8633;DHT22;4354;49.832;10.746;2023-05-19T10:48:24;23.30;1.00
8633;DHT22;4354;49.832;10.746;2023-05-19T10:50:55;23.60;1.00
8633;DHT22;4354;49.832;10.746;2023-05-19T10:53:32;23.30;1.00
8633;DHT22;4354;49.832;10.746;2023-05-19T10:56:02;22.80;1.00
8633;DHT22;4354;49.832;10.746;2023-05-19T10:58:37;22.30;1.00
8633;DHT22;4354;49.832;10.746;2023-05-19T11:01:17;21.80;1.00
8633;DHT22;4354;49.832;10.746;2023-05-19T11:03:52;21.60;1.00
8633;DHT22;4354;49.832;10.746;2023-05-19T11:09:08;21.80;1.00
8633;DHT22;4354;49.832;10.746;2023-05-19T11:11:50;21.90;1.00
8633;DHT22;4354;49.832;10.746;2023-05-19T11:14:22;22.00;1.00
8633;DHT22;4354;49.832;10.746;2023-05-19T11:16:51;21.90;1.00
8633;DHT22;4354;49.832;10.746;2023-05-19T11:19:24;21.90;1.00
8633;DHT22;4354;49.832;10.746;2023-05-19T11:21:52;21.80;1.00
8633;DHT22;4354;49.832;10.746;2023-05-19T11:24:35;21.60;1.00
8633;DHT22;4354;49.832;10.746;2023-05-19T11:27:27;21.70;1.00
8633;DHT22;4354;49.832;10.746;2023-05-19T11:29:58;21.90;1.00
8633;DHT22;4354;49.832;10.746;2023-05-19T11:32:27;22.00;1.00
8633;DHT22;4354;49.832;10.746;2023-05-19T11:34:55;21.90;1.00
8633;DHT22;4354;49.832;10.746;2023-05-19T11:37:22;22.10;1.00
8633;DHT22;4354;49.832;10.746;2023-05-19T11:39:50;22.00;1.00
8633;DHT22;4354;49.832;10.746;2023-05-19T11:42:17;21.50;1.00
8633;DHT22;4354;49.832;10.746;2023-05-19T11:44:45;21.30;1.00
8633;DHT22;4354;49.832;10.746;2023-05-19T11:47:15;21.40;1.00
8633;DHT22;4354;49.832;10.746;2023-05-19T11:49:50;21.50;1.00
8633;DHT22;4354;49.832;10.746;2023-05-19T11:52:21;21.30;1.00
8633;DHT22;4354;49.832;10.746;2023-05-19T11:54:49;21.10;1.00
8633;DHT22;4354;49.832;10.746;2023-05-19T11:57:16;21.30;1.00
8633;DHT22;4354;49.832;10.746;2023-05-19T11:59:43;21.60;1.00
8633;DHT22;4354;49.832;10.746;2023-05-19T12:02:24;21.80;1.00
8633;DHT22;4354;49.832;10.746;2023-05-19T12:04:52;22.20;1.00
8633;DHT22;4354;49.832;10.746;2023-05-19T12:07:21;22.80;1.00
8633;DHT22;4354;49.832;10.746;2023-05-19T12:09:50;23.20;1.00
8633;DHT22;4354;49.832;10.746;2023-05-19T12:12:19;23.30;1.00
8633;DHT22;4354;49.832;10.746;2023-05-19T12:14:47;23.60;1.00
8633;DHT22;4354;49.832;10.746;2023-05-19T12:17:16;23.80;1.00
8633;DHT22;4354;49.832;10.746;2023-05-19T12:19:45;23.60;1.00
8633;DHT22;4354;49.832;10.746;2023-05-19T12:22:13;23.30;1.00
8633;DHT22;4354;49.832;10.746;2023-05-19T12:24:41;22.70;1.00
8633;DHT22;4354;49.832;10.746;2023-05-19T12:27:19;22.60;1.00
8633;DHT22;4354;49.832;10.746;2023-05-19T12:29:49;22.60;1.00
8633;DHT22;4354;49.832;10.746;2023-05-19T12:32:23;22.50;1.00
8633;DHT22;4354;49.832;10.746;2023-05-19T12:34:51;22.50;1.00
8633;DHT22;4354;49.832;10.746;2023-05-19T12:37:18;22.80;1.00
8633;DHT22;4354;49.832;10.746;2023-05-19T12:39:46;23.50;1.00
8633;DHT22;4354;49.832;10.746;2023-05-19T12:42:14;24.10;1.00
8633;DHT22;4354;49.832;10.746;2023-05-19T12:44:43;24.80;1.00
8633;DHT22;4354;49.832;10.746;2023-05-19T12:47:13;25.70;1.00
8633;DHT22;4354;49.832;10.746;2023-05-19T12:50:03;26.30;1.00
8633;DHT22;4354;49.832;10.746;2023-05-19T12:52:32;26.70;1.00
8633;DHT22;4354;49.832;10.746;2023-05-19T12:55:02;26.70;1.00
8633;DHT22;4354;49.832;10.746;2023-05-19T12:57:34;26.90;1.00
8633;DHT22;4354;49.832;10.746;2023-05-19T13:03:06;26.90;1.00
8633;DHT22;4354;49.832;10.746;2023-05-19T13:05:36;27.60;1.00
8633;DHT22;4354;49.832;10.746;2023-05-19T13:08:08;27.60;1.00
8633;DHT22;4354;49.832;10.746;2023-05-19T13:10:36;27.10;1.00
8633;DHT22;4354;49.832;10.746;2023-05-19T13:13:04;26.80;1.00
8633;DHT22;4354;49.832;10.746;2023-05-19T13:15:33;26.00;1.00
8633;DHT22;4354;49.832;10.746;2023-05-19T13:18:03;25.60;1.00
8633;DHT22;4354;49.832;10.746;2023-05-19T13:20:30;25.40;1.00
8633;DHT22;4354;49.832;10.746;2023-05-19T13:22:58;25.10;1.00
8633;DHT22;4354;49.832;10.746;2023-05-19T13:25:25;24.60;1.00
8633;DHT22;4354;49.832;10.746;2023-05-19T13:27:53;24.20;1.00
8633;DHT22;4354;49.832;10.746;2023-05-19T13:30:20;23.80;1.00
8633;DHT22;4354;49.832;10.746;2023-05-19T13:32:47;23.50;1.00
8633;DHT22;4354;49.832;10.746;2023-05-19T13:35:14;23.60;1.00
8633;DHT22;4354;49.832;10.746;2023-05-19T13:37:41;23.60;1.00
8633;DHT22;4354;49.832;10.746;2023-05-19T13:40:09;23.30;1.00
8633;DHT22;4354;49.832;10.746;2023-05-19T13:42:36;23.30;1.00
8633;DHT22;4354;49.832;10.746;2023-05-19T13:45:03;23.10;1.00
8633;DHT22;4354;49.832;10.746;2023-05-19T13:47:31;22.90;1.00
8633;DHT22;4354;49.832;10.746;2023-05-19T13:49:58;22.90;1.00
8633;DHT22;4354;49.832;10.746;2023-05-19T13:52:25;23.30;1.00
8633;DHT22;4354;49.832;10.746;2023-05-19T13:54:54;23.50;1.00
8633;DHT22;4354;49.832;10.746;2023-05-19T13:57:25;23.80;1.00
8633;DHT22;4354;49.832;10.746;2023-05-19T13:59:53;23.80;1.00
8633;DHT22;4354;49.832;10.746;2023-05-19T14:02:29;24.20;1.00
8633;DHT22;4354;49.832;10.746;2023-05-19T14:04:56;24.90;1.00
8633;DHT22;4354;49.832;10.746;2023-05-19T14:07:23;25.20;1.00
8633;DHT22;4354;49.832;10.746;2023-05-19T14:09:51;25.70;1.00
8633;DHT22;4354;49.832;10.746;2023-05-19T14:12:18;25.60;1.00
8633;DHT22;4354;49.832;10.746;2023-05-19T14:14:48;25.30;1.00
8633;DHT22;4354;49.832;10.746;2023-05-19T14:17:15;24.90;1.00
8633;DHT22;4354;49.832;10.746;2023-05-19T14:19:42;24.50;1.00
8633;DHT22;4354;49.832;10.746;2023-05-19T14:22:09;24.10;1.00
8633;DHT22;4354;49.832;10.746;2023-05-19T14:24:36;24.10;1.00
8633;DHT22;4354;49.832;10.746;2023-05-19T14:27:02;24.00;1.00
8633;DHT22;4354;49.832;10.746;2023-05-19T14:29:29;23.90;1.00
8633;DHT22;4354;49.832;10.746;2023-05-19T14:31:56;23.60;1.00
8633;DHT22;4354;49.832;10.746;2023-05-19T14:34:23;23.60;1.00
8633;DHT22;4354;49.832;10.746;2023-05-19T14:36:50;23.30;1.00
8633;DHT22;4354;49.832;10.746;2023-05-19T14:39:17;22.90;1.00
8633;DHT22;4354;49.832;10.746;2023-05-19T14:41:44;22.80;1.00
8633;DHT22;4354;49.832;10.746;2023-05-19T14:44:11;22.60;1.00
8633;DHT22;4354;49.832;10.746;2023-05-19T14:46:38;22.60;1.00
8633;DHT22;4354;49.832;10.746;2023-05-19T14:49:05;22.60;1.00
8633;DHT22;4354;49.832;10.746;2023-05-19T14:51:32;22.40;1.00
8633;DHT22;4354;49.832;10.746;2023-05-19T14:53:58;22.40;1.00
8633;DHT22;4354;49.832;10.746;2023-05-19T14:56:26;22.40;1.00
8633;DHT22;4354;49.832;10.746;2023-05-19T14:58:53;22.40;1.00
8633;DHT22;4354;49.832;10.746;2023-05-19T15:01:20;22.20;1.00
8633;DHT22;4354;49.832;10.746;2023-05-19T15:03:47;22.10;1.00
8633;DHT22;4354;49.832;10.746;2023-05-19T15:06:14;22.10;1.00
8633;DHT22;4354;49.832;10.746;2023-05-19T15:08:40;22.00;1.00
8633;DHT22;4354;49.832;10.746;2023-05-19T15:11:07;22.00;1.00
8633;DHT22;4354;49.832;10.746;2023-05-19T15:13:34;21.70;1.00
8633;DHT22;4354;49.832;10.746;2023-05-19T15:16:01;21.70;1.00
8633;DHT22;4354;49.832;10.746;2023-05-19T15:18:43;21.70;1.00
8633;DHT22;4354;49.832;10.746;2023-05-19T15:21:10;21.60;1.00
8633;DHT22;4354;49.832;10.746;2023-05-19T15:23:37;21.50;1.00
8633;DHT22;4354;49.832;10.746;2023-05-19T15:26:04;21.50;1.00
8633;DHT22;4354;49.832;10.746;2023-05-19T15:28:34;21.50;1.00
8633;DHT22;4354;49.832;10.746;2023-05-19T15:31:05;21.60;1.00
8633;DHT22;4354;49.832;10.746;2023-05-19T15:33:41;21.70;1.00
8633;DHT22;4354;49.832;10.746;2023-05-19T15:36:09;21.80;1.00
8633;DHT22;4354;49.832;10.746;2023-05-19T15:38:42;21.90;1.00
8633;DHT22;4354;49.832;10.746;2023-05-19T15:41:21;21.90;1.00
8633;DHT22;4354;49.832;10.746;2023-05-19T15:43:53;21.90;1.00
8633;DHT22;4354;49.832;10.746;2023-05-19T15:46:29;21.80;1.00
8633;DHT22;4354;49.832;10.746;2023-05-19T15:49:01;21.80;1.00
8633;DHT22;4354;49.832;10.746;2023-05-19T15:51:32;21.80;1.00
8633;DHT22;4354;49.832;10.746;2023-05-19T15:54:00;21.80;1.00
8633;DHT22;4354;49.832;10.746;2023-05-19T15:56:30;21.70;1.00
8633;DHT22;4354;49.832;10.746;2023-05-19T15:59:06;21.50;1.00
8633;DHT22;4354;49.832;10.746;2023-05-19T16:01:36;21.30;1.00
8633;DHT22;4354;49.832;10.746;2023-05-19T16:04:05;21.20;1.00
8633;DHT22;4354;49.832;10.746;2023-05-19T16:06:33;21.00;1.00
8633;DHT22;4354;49.832;10.746;2023-05-19T16:09:03;20.80;1.00
8633;DHT22;4354;49.832;10.746;2023-05-19T16:11:45;20.70;1.00
8633;DHT22;4354;49.832;10.746;2023-05-19T16:14:13;20.50;1.00
8633;DHT22;4354;49.832;10.746;2023-05-19T16:16:43;20.50;1.00
8633;DHT22;4354;49.832;10.746;2023-05-19T16:19:11;20.40;1.00
8633;DHT22;4354;49.832;10.746;2023-05-19T16:24:17;20.10;1.00
8633;DHT22;4354;49.832;10.746;2023-05-19T16:26:46;20.00;1.00
8633;DHT22;4354;49.832;10.746;2023-05-19T16:29:24;19.90;1.00
8633;DHT22;4354;49.832;10.746;2023-05-19T16:31:54;19.80;1.00
8633;DHT22;4354;49.832;10.746;2023-05-19T16:34:26;19.80;1.00
8633;DHT22;4354;49.832;10.746;2023-05-19T16:36:59;19.70;1.00
8633;DHT22;4354;49.832;10.746;2023-05-19T16:39:41;19.70;1.00
8633;DHT22;4354;49.832;10.746;2023-05-19T16:42:10;19.70;1.00
8633;DHT22;4354;49.832;10.746;2023-05-19T16:44:53;19.60;1.00
8633;DHT22;4354;49.832;10.746;2023-05-19T16:47:31;19.50;1.00